Time;durP1;ratioP1;P1;durP2;ratioP2;P2;SDS_P1;SDS_P2;PMS_P1;PMS_P2;Temp;Humidity;BMP_temperature;BMP_pressure;BME280_temperature;BME280_humidity;BME280_pressure;Samples;Min_cycle;Max_cycle;Signal;HPM_P1;HPM_P2
2022/11/07 00:01:47;;;;;;;21.83;16.20;;;7.40;1.00;;;;;;6270922;28;20252;-52
2022/11/07 00:04:51;;;;;;;18.27;16.13;;;7.60;1.00;;;;;;6283540;28;20602;-52
2022/11/07 00:07:54;;;;;;;19.20;15.97;;;7.40;1.00;;;;;;6292438;28;20237;-54
2022/11/07 00:10:57;;;;;;;19.40;16.27;;;7.50;1.00;;;;;;6301660;28;20228;-54
2022/11/07 00:14:00;;;;;;;19.00;16.60;;;7.50;1.00;;;;;;6303398;28;20233;-59
2022/11/07 00:17:03;;;;;;;20.73;17.10;;;7.50;1.00;;;;;;6282680;28;20622;-53
2022/11/07 00:20:14;;;;;;;19.73;16.50;;;7.70;1.00;;;;;;6282815;28;20264;-53
2022/11/07 00:23:17;;;;;;;20.47;16.97;;;7.30;1.00;;;;;;6283456;28;20245;-54
2022/11/07 00:26:19;;;;;;;20.50;16.67;;;7.50;1.00;;;;;;6284535;28;20238;-54
2022/11/07 00:29:23;;;;;;;17.63;15.73;;;7.70;1.00;;;;;;6285488;28;20237;-55
2022/11/07 00:32:25;;;;;;;18.93;15.87;;;7.70;1.00;;;;;;6286259;28;20714;-53
2022/11/07 00:35:30;;;;;;;16.90;15.10;;;7.80;1.00;;;;;;6284559;28;20260;-54
2022/11/07 00:38:32;;;;;;;18.40;14.93;;;7.60;1.00;;;;;;6295449;28;20734;-54
2022/11/07 00:41:37;;;;;;;17.17;15.03;;;7.60;1.00;;;;;;6306567;28;20317;-53
2022/11/07 00:44:39;;;;;;;18.40;16.43;;;7.60;1.00;;;;;;6283184;28;20615;-53
2022/11/07 00:47:42;;;;;;;17.50;15.27;;;7.30;1.00;;;;;;6282819;28;20244;-54
2022/11/07 00:50:49;;;;;;;20.67;16.70;;;7.60;1.00;;;;;;6283334;28;20340;-54
2022/11/07 00:53:53;;;;;;;18.20;16.00;;;7.40;1.00;;;;;;6283474;28;20233;-54
2022/11/07 00:56:55;;;;;;;18.30;16.40;;;7.70;1.00;;;;;;6282900;28;20236;-58
2022/11/07 00:59:58;;;;;;;19.80;15.90;;;7.60;1.00;;;;;;6282753;28;20266;-52
2022/11/07 01:06:23;;;;;;;19.27;15.87;;;7.50;1.00;;;;;;6281988;28;20248;-54
2022/11/07 01:09:26;;;;;;;18.40;15.27;;;7.50;1.00;;;;;;6298700;28;20229;-53
2022/11/07 01:12:29;;;;;;;19.23;16.33;;;7.50;1.00;;;;;;6299987;28;20252;-54
2022/11/07 01:15:32;;;;;;;17.50;15.33;;;7.50;1.00;;;;;;6283514;28;20753;-52
2022/11/07 01:18:35;;;;;;;19.90;15.53;;;7.60;1.00;;;;;;6283142;28;20233;-54
2022/11/07 01:21:41;;;;;;;16.53;14.87;;;7.50;1.00;;;;;;6281722;28;20609;-54
2022/11/07 01:24:44;;;;;;;18.00;14.93;;;7.50;1.00;;;;;;6283274;28;20642;-52
2022/11/07 01:27:48;;;;;;;16.47;14.63;;;7.60;1.00;;;;;;6283095;28;20240;-53
2022/11/07 01:30:51;;;;;;;17.60;15.37;;;7.40;1.00;;;;;;6282710;28;20924;-54
2022/11/07 01:33:54;;;;;;;16.47;14.77;;;7.70;1.00;;;;;;6282963;28;20237;-54
2022/11/07 01:37:07;;;;;;;19.43;15.67;;;7.50;1.00;;;;;;6284007;28;20236;-53
2022/11/07 01:40:11;;;;;;;19.10;15.97;;;7.50;1.00;;;;;;6300880;28;20236;-54
2022/11/07 01:43:13;;;;;;;16.87;15.07;;;7.60;1.00;;;;;;6294502;28;20717;-53
2022/11/07 01:46:18;;;;;;;18.23;15.87;;;7.60;1.00;;;;;;6281967;28;20237;-53
2022/11/07 01:49:25;;;;;;;16.50;14.70;;;7.60;1.00;;;;;;6281411;28;20229;-54
2022/11/07 01:52:35;;;;;;;17.73;15.77;;;7.90;1.00;;;;;;6281978;28;20477;-55
2022/11/07 01:55:38;;;;;;;21.07;15.67;;;7.50;1.00;;;;;;6274198;28;20234;-53
2022/11/07 01:58:41;;;;;;;18.33;15.93;;;7.60;1.00;;;;;;6287172;28;20241;-60
2022/11/07 02:01:44;;;;;;;17.13;15.33;;;7.40;1.00;;;;;;6292440;28;20247;-54
2022/11/07 02:04:48;;;;;;;16.80;15.00;;;7.80;1.00;;;;;;6286762;28;20255;-53
2022/11/07 02:07:57;;;;;;;17.73;15.87;;;7.70;1.00;;;;;;6290714;28;20737;-52
2022/11/07 02:11:01;;;;;;;17.67;15.33;;;7.80;1.00;;;;;;6305543;28;20232;-51
2022/11/07 02:14:06;;;;;;;16.23;14.47;;;7.50;1.00;;;;;;6302668;28;20229;-53
2022/11/07 02:17:11;;;;;;;16.03;14.40;;;7.60;1.00;;;;;;6286523;28;20267;-53
2022/11/07 02:20:14;;;;;;;15.37;13.73;;;7.60;1.00;;;;;;6285910;28;20710;-53
2022/11/07 02:23:25;;;;;;;17.50;14.70;;;7.60;1.00;;;;;;6286095;28;20237;-53
2022/11/07 02:26:31;;;;;;;16.57;14.93;;;7.60;1.00;;;;;;6287714;28;20225;-53
2022/11/07 02:29:37;;;;;;;17.10;14.93;;;7.60;1.00;;;;;;6286202;28;20503;-52
2022/11/07 02:32:40;;;;;;;18.37;15.07;;;7.70;1.00;;;;;;6286487;28;20237;-53
2022/11/07 02:35:44;;;;;;;16.00;14.30;;;7.90;1.00;;;;;;6286075;28;20240;-54
2022/11/07 02:38:50;;;;;;;15.00;13.47;;;7.80;1.00;;;;;;6300770;28;20228;-52
2022/11/07 02:41:56;;;;;;;16.63;14.33;;;7.70;1.00;;;;;;6295438;28;20260;-53
2022/11/07 02:44:59;;;;;;;16.33;14.60;;;7.70;1.00;;;;;;6306320;28;20240;-53
2022/11/07 02:48:02;;;;;;;15.47;13.87;;;7.70;1.00;;;;;;6286632;28;20723;-53
2022/11/07 02:51:05;;;;;;;15.93;14.20;;;7.70;1.00;;;;;;6285427;28;20957;-55
2022/11/07 02:54:07;;;;;;;14.60;13.10;;;7.70;1.00;;;;;;6286372;28;20906;-54
2022/11/07 02:57:11;;;;;;;14.40;13.03;;;7.60;1.00;;;;;;6285282;28;20744;-53
2022/11/07 03:00:15;;;;;;;14.07;12.77;;;7.70;1.00;;;;;;6285898;28;20256;-60
2022/11/07 03:03:19;;;;;;;14.07;12.77;;;7.80;1.00;;;;;;6290668;28;20626;-52
2022/11/07 03:06:25;;;;;;;14.97;13.27;;;7.70;1.00;;;;;;6277921;28;20233;-54
2022/11/07 03:09:29;;;;;;;14.47;13.07;;;7.90;1.00;;;;;;6298651;28;20609;-52
2022/11/07 03:12:33;;;;;;;14.17;12.77;;;7.90;1.00;;;;;;6300530;28;20729;-54
2022/11/07 03:15:36;;;;;;;15.90;13.90;;;7.70;1.00;;;;;;6285871;28;20244;-54
2022/11/07 03:18:39;;;;;;;15.20;13.67;;;8.00;1.00;;;;;;6285579;28;20229;-54
2022/11/07 03:21:42;;;;;;;13.23;11.93;;;8.00;1.00;;;;;;6283203;28;20834;-52
2022/11/07 03:24:45;;;;;;;14.00;12.70;;;7.80;1.00;;;;;;6286499;28;20248;-53
2022/11/07 03:27:50;;;;;;;12.97;11.70;;;8.00;1.00;;;;;;6284544;28;20240;-54
2022/11/07 03:30:53;;;;;;;13.30;11.93;;;7.90;1.00;;;;;;6287129;28;20248;-54
2022/11/07 03:33:57;;;;;;;12.43;11.33;;;8.10;1.00;;;;;;6285613;28;20710;-55
2022/11/07 03:37:00;;;;;;;13.23;12.03;;;8.00;1.00;;;;;;6288248;28;20251;-53
2022/11/07 03:40:04;;;;;;;15.70;12.40;;;8.00;1.00;;;;;;6301477;28;20349;-53
2022/11/07 03:43:09;;;;;;;13.47;12.27;;;8.00;1.00;;;;;;6295212;28;21589;-53
2022/11/07 03:46:12;;;;;;;13.27;12.10;;;8.10;1.00;;;;;;6285308;28;20232;-52
2022/11/07 03:49:15;;;;;;;12.77;11.50;;;8.20;1.00;;;;;;6292378;28;20420;-54
2022/11/07 03:52:18;;;;;;;12.40;11.30;;;8.30;1.00;;;;;;6284128;28;20725;-53
2022/11/07 03:55:20;;;;;;;11.80;10.80;;;8.50;1.00;;;;;;6286434;28;20236;-53
2022/11/07 03:58:26;;;;;;;12.30;11.20;;;8.50;1.00;;;;;;6284682;28;20233;-53
2022/11/07 04:01:29;;;;;;;12.97;11.60;;;8.40;1.00;;;;;;6285583;28;20629;-53
2022/11/07 04:04:32;;;;;;;11.07;10.23;;;8.40;1.00;;;;;;6291465;28;20237;-53
2022/11/07 04:07:35;;;;;;;11.83;10.77;;;8.40;1.00;;;;;;6288460;28;20240;-52
2022/11/07 04:10:37;;;;;;;11.07;10.17;;;8.50;1.00;;;;;;6293155;28;20239;-53
2022/11/07 04:17:19;;;;;;;10.83;9.93;;;8.60;1.00;;;;;;6298534;28;20241;-53
2022/11/07 04:20:22;;;;;;;10.00;9.30;;;8.50;1.00;;;;;;6285650;28;20239;-55
2022/11/07 04:23:28;;;;;;;11.60;10.60;;;8.60;1.00;;;;;;6305513;28;20788;-54
2022/11/07 04:29:53;;;;;;;11.00;10.10;;;8.70;1.00;;;;;;6305712;28;20244;-52
2022/11/07 04:32:58;;;;;;;11.13;10.20;;;8.70;1.00;;;;;;6290782;28;20841;-54
2022/11/07 04:36:00;;;;;;;10.30;9.33;;;8.90;1.00;;;;;;6303509;28;20755;-53
2022/11/07 04:39:03;;;;;;;11.83;10.83;;;8.70;1.00;;;;;;6293345;28;20354;-54
2022/11/07 04:42:06;;;;;;;10.67;9.63;;;8.90;1.00;;;;;;6294538;28;20256;-53
2022/11/07 04:45:14;;;;;;;11.80;10.40;;;8.80;1.00;;;;;;6284381;28;20242;-53
2022/11/07 04:48:18;;;;;;;10.83;9.97;;;8.80;1.00;;;;;;6307692;28;20244;-52
2022/11/07 04:51:23;;;;;;;11.17;10.27;;;8.80;1.00;;;;;;6296458;28;20239;-52
2022/11/07 04:54:38;;;;;;;11.17;10.17;;;8.80;1.00;;;;;;6299943;28;20234;-54
2022/11/07 04:57:40;;;;;;;10.87;9.83;;;8.80;1.00;;;;;;6278046;28;20241;-53
2022/11/07 05:00:44;;;;;;;10.70;9.80;;;8.80;1.00;;;;;;6297541;28;20375;-53
2022/11/07 05:03:47;;;;;;;10.60;9.70;;;8.80;1.00;;;;;;6291064;28;20339;-53
2022/11/07 05:06:51;;;;;;;11.33;9.47;;;8.80;1.00;;;;;;6292229;28;20232;-54
2022/11/07 05:10:14;;;;;;;10.90;9.80;;;8.90;1.00;;;;;;6297261;28;20236;-53
2022/11/07 05:13:21;;;;;;;10.47;9.57;;;8.90;1.00;;;;;;6291840;28;20268;-53
2022/11/07 05:16:26;;;;;;;10.73;9.83;;;9.00;1.00;;;;;;6299078;28;20268;-53
2022/11/07 05:19:36;;;;;;;11.00;10.10;;;9.00;1.00;;;;;;6294953;28;20628;-53
2022/11/07 05:26:01;;;;;;;9.97;9.17;;;9.10;1.00;;;;;;6291705;28;20233;-55
2022/11/07 05:29:03;;;;;;;10.27;9.47;;;9.00;1.00;;;;;;6294273;28;20364;-54
2022/11/07 05:32:08;;;;;;;9.60;8.90;;;9.00;1.00;;;;;;6289584;28;20236;-53
2022/11/07 05:35:10;;;;;;;9.90;9.13;;;9.00;1.00;;;;;;6295084;28;20255;-55
2022/11/07 05:38:13;;;;;;;10.00;9.10;;;9.10;1.00;;;;;;6289710;28;20247;-54
2022/11/07 05:41:19;;;;;;;9.83;9.13;;;9.00;1.00;;;;;;6302078;28;20233;-54
2022/11/07 05:44:22;;;;;;;9.33;8.57;;;9.00;1.00;;;;;;6289208;28;20874;-54
2022/11/07 05:47:26;;;;;;;9.27;8.43;;;9.00;1.00;;;;;;6295352;28;20233;-54
2022/11/07 05:50:30;;;;;;;9.33;8.63;;;9.00;1.00;;;;;;6297608;28;20244;-54
2022/11/07 05:53:33;;;;;;;9.13;8.43;;;9.00;1.00;;;;;;6298060;28;20228;-54
2022/11/07 05:56:37;;;;;;;8.97;8.27;;;9.00;1.00;;;;;;6296392;28;20232;-54
2022/11/07 05:59:40;;;;;;;8.90;8.30;;;9.10;1.00;;;;;;6289874;28;20233;-54
2022/11/07 06:02:44;;;;;;;9.03;8.23;;;9.10;1.00;;;;;;6293077;28;20284;-55
2022/11/07 06:05:48;;;;;;;9.00;8.30;;;9.10;1.00;;;;;;6288794;28;20725;-53
2022/11/07 06:08:52;;;;;;;8.70;8.10;;;9.10;1.00;;;;;;6292413;28;20236;-54
2022/11/07 06:11:54;;;;;;;8.20;7.60;;;9.10;1.00;;;;;;6297756;28;20228;-56
2022/11/07 06:14:58;;;;;;;8.27;7.77;;;9.10;1.00;;;;;;6289430;28;20241;-55
2022/11/07 06:18:03;;;;;;;8.70;8.00;;;9.10;1.00;;;;;;6300433;28;20244;-54
2022/11/07 06:21:07;;;;;;;8.13;7.60;;;9.30;1.00;;;;;;6294384;28;20226;-56
2022/11/07 06:24:10;;;;;;;7.90;7.40;;;9.00;1.00;;;;;;6282545;28;20439;-53
2022/11/07 06:27:20;;;;;;;7.80;7.30;;;9.10;1.00;;;;;;6283925;28;20715;-54
2022/11/07 06:30:22;;;;;;;8.53;7.87;;;9.10;1.00;;;;;;6288686;28;20244;-53
2022/11/07 06:33:28;;;;;;;7.77;7.27;;;9.10;1.00;;;;;;6298532;28;20733;-54
2022/11/07 06:36:31;;;;;;;7.87;7.37;;;9.10;1.00;;;;;;6289287;28;20602;-54
2022/11/07 06:39:34;;;;;;;7.73;7.23;;;9.10;1.00;;;;;;6288845;28;20241;-55
2022/11/07 06:42:37;;;;;;;8.17;7.60;;;9.10;1.00;;;;;;6305340;28;20399;-54
2022/11/07 06:45:40;;;;;;;8.97;8.27;;;9.10;1.00;;;;;;6294468;28;20305;-55
2022/11/07 06:48:44;;;;;;;7.90;7.30;;;9.20;1.00;;;;;;6290897;28;20544;-54
2022/11/07 06:51:47;;;;;;;7.63;7.10;;;9.20;1.00;;;;;;6303774;28;20236;-54
2022/11/07 06:54:50;;;;;;;8.47;7.77;;;9.20;1.00;;;;;;6295972;28;20234;-55
2022/11/07 06:57:52;;;;;;;8.60;7.83;;;9.20;1.00;;;;;;6290047;28;20241;-54
2022/11/07 07:01:01;;;;;;;7.50;7.10;;;9.20;1.00;;;;;;6296344;28;20244;-54
2022/11/07 07:04:10;;;;;;;8.17;7.60;;;9.20;1.00;;;;;;6296937;28;20252;-55
2022/11/07 07:07:13;;;;;;;7.70;7.23;;;9.20;1.00;;;;;;6287593;28;20236;-53
2022/11/07 07:10:16;;;;;;;7.43;7.03;;;9.20;1.00;;;;;;6302271;28;20619;-54
2022/11/07 07:13:19;;;;;;;8.30;7.67;;;9.20;1.00;;;;;;6292250;28;20240;-54
2022/11/07 07:16:23;;;;;;;7.87;7.37;;;9.30;1.00;;;;;;6309361;28;20847;-54
2022/11/07 07:19:27;;;;;;;8.03;7.53;;;9.30;1.00;;;;;;6293335;28;20244;-54
2022/11/07 07:22:39;;;;;;;8.50;7.80;;;9.30;1.00;;;;;;6284057;28;20242;-54
2022/11/07 07:25:42;;;;;;;7.90;7.10;;;9.30;1.00;;;;;;6300454;28;20229;-52
2022/11/07 07:28:45;;;;;;;8.13;7.63;;;9.30;1.00;;;;;;6294313;28;20232;-55
2022/11/07 07:31:48;;;;;;;7.30;6.90;;;9.40;1.00;;;;;;6289859;28;20242;-54
2022/11/07 07:34:52;;;;;;;7.60;6.93;;;9.50;1.00;;;;;;6306388;28;20241;-52
2022/11/07 07:37:55;;;;;;;7.23;6.83;;;9.50;1.00;;;;;;6291463;28;20239;-54
2022/11/07 07:40:58;;;;;;;7.63;7.07;;;9.50;1.00;;;;;;6297870;28;20233;-53
2022/11/07 07:44:01;;;;;;;7.77;7.07;;;9.60;1.00;;;;;;6303677;28;20233;-52
2022/11/07 07:47:04;;;;;;;6.80;6.40;;;9.70;1.00;;;;;;6299350;28;20244;-54
2022/11/07 07:50:14;;;;;;;7.47;7.03;;;9.70;1.00;;;;;;6296372;28;20422;-53
2022/11/07 07:53:17;;;;;;;6.73;6.33;;;9.80;1.00;;;;;;6302233;28;20718;-53
2022/11/07 07:56:20;;;;;;;6.10;5.80;;;9.80;1.00;;;;;;6292787;28;20616;-53
2022/11/07 07:59:23;;;;;;;6.43;5.97;;;9.80;1.00;;;;;;6304151;28;20237;-53
2022/11/07 08:02:30;;;;;;;6.57;6.27;;;9.90;1.00;;;;;;6292700;28;20245;-54
2022/11/07 08:05:35;;;;;;;6.13;5.80;;;9.90;1.00;;;;;;6285779;28;20237;-53
2022/11/07 08:08:37;;;;;;;6.23;5.73;;;9.90;1.00;;;;;;6295516;28;20709;-55
2022/11/07 08:11:43;;;;;;;8.00;5.37;;;10.00;1.00;;;;;;6298103;28;20239;-59
2022/11/07 08:14:46;;;;;;;6.20;5.77;;;10.00;1.00;;;;;;6290797;28;20477;-56
2022/11/07 08:17:50;;;;;;;6.10;5.77;;;10.10;1.00;;;;;;6287703;28;20419;-53
2022/11/07 08:20:55;;;;;;;5.53;5.10;;;10.20;1.00;;;;;;6294542;28;20240;-54
2022/11/07 08:23:59;;;;;;;5.97;5.50;;;10.30;1.00;;;;;;6293737;28;20240;-53
2022/11/07 08:27:02;;;;;;;6.17;5.83;;;10.40;1.00;;;;;;6293858;28;20720;-54
2022/11/07 08:30:08;;;;;;;5.30;4.97;;;10.40;1.00;;;;;;6294590;28;20873;-53
2022/11/07 08:33:24;;;;;;;5.87;5.43;;;10.40;1.00;;;;;;6293294;28;20233;-54
2022/11/07 08:36:28;;;;;;;5.10;4.80;;;10.60;1.00;;;;;;6294956;28;20238;-53
2022/11/07 08:39:31;;;;;;;6.03;5.53;;;10.70;1.00;;;;;;6288477;28;20256;-54
2022/11/07 08:42:34;;;;;;;5.23;5.03;;;10.80;1.00;;;;;;6288902;28;20245;-54
2022/11/07 08:45:36;;;;;;;5.30;5.00;;;10.90;1.00;;;;;;6305490;28;20351;-54
2022/11/07 08:48:39;;;;;;;7.90;5.00;;;11.00;1.00;;;;;;6289170;27;20603;-53
2022/11/07 08:51:43;;;;;;;4.53;4.40;;;11.10;1.00;;;;;;6283510;28;20245;-53
2022/11/07 08:54:46;;;;;;;4.30;4.20;;;11.20;1.00;;;;;;6290880;28;20233;-54
2022/11/07 08:57:49;;;;;;;4.90;4.70;;;11.40;1.00;;;;;;6297242;27;20803;-52
2022/11/07 09:00:52;;;;;;;5.33;5.03;;;11.40;1.00;;;;;;6289782;28;20237;-53
2022/11/07 09:03:55;;;;;;;4.70;4.50;;;11.40;1.00;;;;;;6286948;28;20248;-52
2022/11/07 09:07:02;;;;;;;4.50;4.30;;;11.40;1.00;;;;;;6291389;28;20782;-53
2022/11/07 09:10:05;;;;;;;4.57;4.27;;;11.40;1.00;;;;;;6298976;28;20233;-53
2022/11/07 09:13:10;;;;;;;4.73;4.40;;;11.40;1.00;;;;;;6289839;28;20609;-53
2022/11/07 09:16:17;;;;;;;4.20;3.97;;;11.40;1.00;;;;;;6307561;28;20237;-53
2022/11/07 09:19:20;;;;;;;4.90;4.50;;;11.50;1.00;;;;;;6291009;28;20618;-53
2022/11/07 09:22:24;;;;;;;4.60;4.20;;;11.60;1.00;;;;;;6287684;28;20245;-54
2022/11/07 09:25:28;;;;;;;4.23;3.97;;;11.60;1.00;;;;;;6296252;28;20251;-58
2022/11/07 09:28:30;;;;;;;4.70;4.30;;;11.70;1.00;;;;;;6293847;28;20236;-54
2022/11/07 09:31:33;;;;;;;6.80;4.30;;;11.80;1.00;;;;;;6292095;28;20803;-53
2022/11/07 09:34:36;;;;;;;4.20;4.00;;;11.80;1.00;;;;;;6290066;28;20264;-54
2022/11/07 09:37:42;;;;;;;4.20;3.90;;;11.90;1.00;;;;;;6292862;28;20241;-53
2022/11/07 09:40:49;;;;;;;5.03;4.60;;;11.90;1.00;;;;;;6290462;28;20237;-55
2022/11/07 09:44:12;;;;;;;4.43;4.33;;;12.10;1.00;;;;;;6284484;28;20246;-54
2022/11/07 09:47:21;;;;;;;4.87;4.57;;;12.10;1.00;;;;;;6286765;28;20221;-53
2022/11/07 09:50:31;;;;;;;5.27;5.00;;;12.10;1.00;;;;;;6292656;28;20584;-53
2022/11/07 09:53:39;;;;;;;4.13;3.90;;;12.20;1.00;;;;;;6285418;28;20233;-52
2022/11/07 09:56:48;;;;;;;3.73;3.63;;;12.20;1.00;;;;;;6295681;28;20470;-53
2022/11/07 09:59:55;;;;;;;4.23;3.67;;;12.40;1.00;;;;;;6297875;28;20236;-55
2022/11/07 10:03:00;;;;;;;4.03;3.73;;;12.40;1.00;;;;;;6294519;28;20237;-54
2022/11/07 10:06:10;;;;;;;4.73;3.73;;;12.50;1.00;;;;;;6284386;28;20822;-53
2022/11/07 10:09:19;;;;;;;3.70;3.47;;;12.70;1.00;;;;;;6291340;28;20267;-54
2022/11/07 10:12:56;;;;;;;3.57;3.43;;;12.90;1.00;;;;;;6285422;28;20491;-54
2022/11/07 10:16:07;;;;;;;3.43;3.33;;;13.00;1.00;;;;;;6293648;28;20229;-53
2022/11/07 10:19:30;;;;;;;3.90;3.50;;;13.10;1.00;;;;;;6296770;28;20233;-53
2022/11/07 10:22:44;;;;;;;4.27;3.90;;;13.10;1.00;;;;;;6297355;28;20232;-53
2022/11/07 10:25:54;;;;;;;4.63;3.70;;;13.20;1.00;;;;;;6295851;28;21197;-54
2022/11/07 10:29:00;;;;;;;4.83;3.50;;;13.40;1.00;;;;;;6298537;28;20237;-53
2022/11/07 10:32:16;;;;;;;4.60;3.53;;;13.40;1.00;;;;;;6301026;28;20607;-53
2022/11/07 10:35:25;;;;;;;4.10;3.73;;;13.50;1.00;;;;;;6297807;28;20229;-53
2022/11/07 10:38:29;;;;;;;3.47;3.20;;;13.60;1.00;;;;;;6293818;28;20271;-54
2022/11/07 10:41:35;;;;;;;3.40;3.30;;;13.80;1.00;;;;;;6304224;28;20592;-54
2022/11/07 10:44:40;;;;;;;3.13;2.93;;;14.00;1.00;;;;;;6297312;28;20237;-55
2022/11/07 10:47:55;;;;;;;3.50;3.20;;;14.00;1.00;;;;;;6291926;28;20563;-58
2022/11/07 10:51:01;;;;;;;3.60;3.30;;;14.00;1.00;;;;;;6299629;28;20241;-57
2022/11/07 10:54:04;;;;;;;3.40;3.20;;;14.20;1.00;;;;;;6304185;28;20243;-52
2022/11/07 10:57:13;;;;;;;3.80;3.40;;;14.30;1.00;;;;;;6298839;28;20233;-53
2022/11/07 11:00:25;;;;;;;3.50;3.27;;;14.20;1.00;;;;;;6295157;28;20228;-54
2022/11/07 11:03:31;;;;;;;3.13;2.93;;;14.30;1.00;;;;;;6293481;28;20245;-54
2022/11/07 11:06:57;;;;;;;3.20;3.00;;;14.30;1.00;;;;;;6294666;28;20248;-53
2022/11/07 11:10:01;;;;;;;4.60;3.63;;;14.40;1.00;;;;;;6291564;28;20675;-54
2022/11/07 11:13:06;;;;;;;3.40;3.30;;;14.60;1.00;;;;;;6301161;28;20229;-53
2022/11/07 11:16:22;;;;;;;3.63;3.33;;;14.60;1.00;;;;;;6294140;28;20241;-53
2022/11/07 11:19:28;;;;;;;3.10;2.97;;;14.60;1.00;;;;;;6287027;28;20233;-53
2022/11/07 11:22:31;;;;;;;3.50;3.20;;;14.70;1.00;;;;;;6304120;28;20247;-54
2022/11/07 11:25:43;;;;;;;3.40;3.20;;;14.50;1.00;;;;;;6295856;28;20294;-56
2022/11/07 11:28:53;;;;;;;3.43;3.23;;;14.60;1.00;;;;;;6296646;28;20261;-54
2022/11/07 11:31:58;;;;;;;3.63;3.43;;;14.50;1.00;;;;;;6290209;28;20237;-52
2022/11/07 11:35:19;;;;;;;4.50;4.10;;;14.60;1.00;;;;;;6292312;28;20229;-54
2022/11/07 11:38:26;;;;;;;3.30;3.10;;;14.60;1.00;;;;;;6294191;28;20701;-54
2022/11/07 11:41:40;;;;;;;3.30;3.10;;;14.60;1.00;;;;;;6289649;28;20243;-55
2022/11/07 11:44:46;;;;;;;3.00;2.80;;;14.40;1.00;;;;;;6298795;28;20244;-52
2022/11/07 11:47:59;;;;;;;3.10;2.90;;;14.40;1.00;;;;;;6299156;28;20701;-55
2022/11/07 11:51:06;;;;;;;3.80;3.23;;;14.50;1.00;;;;;;6294924;28;20671;-53
2022/11/07 11:54:14;;;;;;;3.63;2.87;;;14.60;1.00;;;;;;6291707;28;20248;-53
2022/11/07 11:57:22;;;;;;;4.03;3.20;;;14.80;1.00;;;;;;6292550;28;20478;-53
2022/11/07 12:00:27;;;;;;;3.13;2.97;;;14.70;1.00;;;;;;6298201;28;20230;-53
2022/11/07 12:03:51;;;;;;;4.20;3.13;;;14.70;1.00;;;;;;6297949;28;20390;-54
2022/11/07 12:07:02;;;;;;;3.00;2.90;;;14.70;1.00;;;;;;6290264;28;20503;-54
2022/11/07 12:10:12;;;;;;;4.20;3.00;;;14.70;1.00;;;;;;6302345;28;20284;-55
2022/11/07 12:13:22;;;;;;;5.37;3.40;;;14.80;1.00;;;;;;6288442;28;20274;-52
2022/11/07 12:16:34;;;;;;;4.40;3.07;;;14.80;1.00;;;;;;6290607;28;20726;-53
2022/11/07 12:19:45;;;;;;;3.00;2.83;;;14.70;1.00;;;;;;6295236;28;20236;-55
2022/11/07 12:23:00;;;;;;;3.43;2.80;;;14.70;1.00;;;;;;6284600;28;20240;-53
2022/11/07 12:26:10;;;;;;;3.77;3.53;;;14.70;1.00;;;;;;6307019;28;20237;-53
2022/11/07 12:29:26;;;;;;;3.53;3.20;;;14.60;1.00;;;;;;6287407;28;20248;-55
2022/11/07 12:32:41;;;;;;;3.77;3.30;;;14.60;1.00;;;;;;6304412;28;20615;-54
2022/11/07 12:35:49;;;;;;;3.50;3.13;;;14.60;1.00;;;;;;6288052;28;20226;-55
2022/11/07 12:39:17;;;;;;;5.10;3.37;;;14.60;1.00;;;;;;6293020;28;20803;-54
2022/11/07 12:42:36;;;;;;;3.40;3.20;;;14.60;1.00;;;;;;6292081;28;20382;-53
2022/11/07 12:45:57;;;;;;;4.63;3.30;;;14.70;1.00;;;;;;6288104;28;20237;-55
2022/11/07 12:49:32;;;;;;;3.10;2.93;;;14.80;1.00;;;;;;6293995;28;20362;-54
2022/11/07 12:52:51;;;;;;;3.20;3.00;;;14.80;1.00;;;;;;6283599;28;20837;-54
2022/11/07 12:56:02;;;;;;;4.07;2.90;;;14.80;1.00;;;;;;6297651;28;20969;-54
2022/11/07 12:59:11;;;;;;;5.57;3.30;;;14.80;1.00;;;;;;6291373;28;20269;-52
2022/11/07 13:02:28;;;;;;;3.57;3.37;;;14.80;1.00;;;;;;6294195;28;20461;-54
2022/11/07 13:05:53;;;;;;;6.13;3.73;;;14.70;1.00;;;;;;6297148;28;20258;-53
2022/11/07 13:09:05;;;;;;;3.87;3.40;;;14.70;1.00;;;;;;6295809;28;20316;-53
2022/11/07 13:12:16;;;;;;;3.43;3.20;;;14.60;1.00;;;;;;6289467;28;20278;-54
2022/11/07 13:15:19;;;;;;;3.40;3.10;;;14.60;1.00;;;;;;6298279;28;20260;-53
2022/11/07 13:18:26;;;;;;;3.57;3.27;;;14.50;1.00;;;;;;6286697;28;20347;-54
2022/11/07 13:21:39;;;;;;;3.47;3.30;;;14.40;1.00;;;;;;6292183;28;20259;-53
2022/11/07 13:24:52;;;;;;;3.63;3.33;;;14.40;1.00;;;;;;6297188;28;20324;-53
2022/11/07 13:28:22;;;;;;;3.53;2.93;;;14.30;1.00;;;;;;6286390;28;20252;-54
2022/11/07 13:31:34;;;;;;;3.40;3.10;;;14.30;1.00;;;;;;6286711;28;20245;-54
2022/11/07 13:34:54;;;;;;;3.43;3.20;;;14.30;1.00;;;;;;6295427;28;20263;-54
2022/11/07 13:38:01;;;;;;;3.67;3.37;;;14.30;1.00;;;;;;6284230;28;20375;-53
2022/11/07 13:41:10;;;;;;;3.67;3.37;;;14.30;1.00;;;;;;6290590;28;20702;-54
2022/11/07 13:44:23;;;;;;;3.43;3.10;;;14.20;1.00;;;;;;6290145;28;20241;-54
2022/11/07 13:47:33;;;;;;;3.43;3.33;;;14.10;1.00;;;;;;6283345;28;20238;-53
2022/11/07 13:50:43;;;;;;;4.27;3.20;;;14.00;1.00;;;;;;6294611;28;20236;-53
2022/11/07 13:53:59;;;;;;;4.53;3.47;;;14.00;1.00;;;;;;6299410;28;20236;-54
2022/11/07 13:57:06;;;;;;;6.07;4.63;;;13.90;1.00;;;;;;6289885;28;20248;-53
2022/11/07 14:00:13;;;;;;;5.20;3.43;;;13.90;1.00;;;;;;6295463;28;20406;-54
2022/11/07 14:03:25;;;;;;;3.63;3.50;;;13.90;1.00;;;;;;6288733;28;20229;-52
2022/11/07 14:06:31;;;;;;;5.60;3.40;;;13.90;1.00;;;;;;6298483;28;20237;-54
2022/11/07 14:09:36;;;;;;;4.70;3.80;;;13.90;1.00;;;;;;6301101;28;20225;-52
2022/11/07 14:12:39;;;;;;;4.43;4.07;;;13.90;1.00;;;;;;6295559;28;20604;-53
2022/11/07 14:15:46;;;;;;;3.47;3.20;;;13.90;1.00;;;;;;6293411;28;20517;-54
2022/11/07 14:18:54;;;;;;;4.63;3.73;;;13.90;1.00;;;;;;6289500;28;20342;-55
2022/11/07 14:22:00;;;;;;;4.07;3.67;;;13.80;1.00;;;;;;6288280;28;21104;-55
2022/11/07 14:25:28;;;;;;;4.07;3.77;;;13.80;1.00;;;;;;6292105;28;20618;-53
2022/11/07 14:28:35;;;;;;;4.10;3.70;;;13.80;1.00;;;;;;6293894;28;20592;-54
2022/11/07 14:31:38;;;;;;;3.90;3.63;;;13.80;1.00;;;;;;6287276;28;20244;-53
2022/11/07 14:34:47;;;;;;;6.00;3.73;;;13.70;1.00;;;;;;6301925;28;20619;-53
2022/11/07 14:37:50;;;;;;;3.70;3.50;;;13.70;1.00;;;;;;6290523;28;20722;-54
2022/11/07 14:40:56;;;;;;;5.10;4.33;;;13.70;1.00;;;;;;6295540;28;20237;-53
2022/11/07 14:44:03;;;;;;;4.10;3.83;;;13.70;1.00;;;;;;6286941;28;20241;-53
2022/11/07 14:47:07;;;;;;;5.80;3.93;;;13.70;1.00;;;;;;6285420;28;20237;-53
2022/11/07 14:50:15;;;;;;;5.83;3.40;;;13.60;1.00;;;;;;6289693;28;20233;-53
2022/11/07 14:53:24;;;;;;;6.00;3.53;;;13.60;1.00;;;;;;6296695;28;20591;-53
2022/11/07 14:56:31;;;;;;;4.70;4.17;;;13.60;1.00;;;;;;6294089;28;20254;-52
2022/11/07 14:59:34;;;;;;;6.40;3.73;;;13.60;1.00;;;;;;6283814;28;20248;-53
2022/11/07 15:02:37;;;;;;;3.33;3.03;;;13.60;1.00;;;;;;6290819;28;20293;-53
2022/11/07 15:05:44;;;;;;;5.17;3.20;;;13.60;1.00;;;;;;6294953;28;20629;-54
2022/11/07 15:08:57;;;;;;;3.27;3.07;;;13.60;1.00;;;;;;6298989;28;20264;-52
2022/11/07 15:12:01;;;;;;;3.17;3.07;;;13.60;1.00;;;;;;6296755;27;20715;-53
2022/11/07 15:15:10;;;;;;;3.60;3.40;;;13.60;1.00;;;;;;6303259;28;20772;-53
2022/11/07 15:18:25;;;;;;;4.43;3.70;;;13.50;1.00;;;;;;6296309;28;20622;-54
2022/11/07 15:21:30;;;;;;;4.10;3.70;;;13.50;1.00;;;;;;6289345;27;20233;-53
2022/11/07 15:24:39;;;;;;;4.70;3.97;;;13.50;1.00;;;;;;6294933;28;20628;-53
2022/11/07 15:27:44;;;;;;;5.03;4.27;;;13.50;1.00;;;;;;6297314;28;20240;-53
2022/11/07 15:30:47;;;;;;;3.80;3.50;;;13.50;1.00;;;;;;6293677;28;20236;-53
2022/11/07 15:33:50;;;;;;;4.73;4.43;;;13.50;1.00;;;;;;6295873;28;20229;-54
2022/11/07 15:36:53;;;;;;;4.03;3.73;;;13.40;1.00;;;;;;6297621;28;20233;-54
2022/11/07 15:39:56;;;;;;;6.57;3.93;;;13.40;1.00;;;;;;6296294;28;20402;-53
2022/11/07 15:43:00;;;;;;;4.73;3.63;;;13.30;1.00;;;;;;6286554;28;20248;-54
2022/11/07 15:46:15;;;;;;;4.37;4.00;;;13.40;1.00;;;;;;6303989;28;20237;-54
2022/11/07 15:49:18;;;;;;;3.97;3.67;;;13.40;1.00;;;;;;6289686;28;20213;-55
2022/11/07 15:52:25;;;;;;;6.10;4.10;;;13.40;1.00;;;;;;6295931;28;20239;-54
2022/11/07 15:55:28;;;;;;;4.73;4.23;;;13.40;1.00;;;;;;6297807;27;20230;-54
2022/11/07 15:58:32;;;;;;;5.03;3.80;;;13.40;1.00;;;;;;6287316;28;20240;-55
2022/11/07 16:01:37;;;;;;;4.37;3.97;;;13.40;1.00;;;;;;6293393;28;20397;-53
2022/11/07 16:04:40;;;;;;;5.43;4.30;;;13.40;1.00;;;;;;6291304;28;20232;-54
2022/11/07 16:07:45;;;;;;;6.83;4.07;;;13.30;1.00;;;;;;6292133;28;20260;-53
2022/11/07 16:10:50;;;;;;;5.73;3.60;;;13.30;1.00;;;;;;6298271;28;25362;-54
2022/11/07 16:13:55;;;;;;;4.80;3.70;;;13.30;1.00;;;;;;6299895;28;20484;-53
2022/11/07 16:17:19;;;;;;;4.03;3.70;;;13.30;1.00;;;;;;6284815;28;20257;-54
2022/11/07 16:20:23;;;;;;;4.97;3.80;;;13.20;1.00;;;;;;6286680;28;20593;-53
2022/11/07 16:23:26;;;;;;;6.57;4.27;;;13.20;1.00;;;;;;6292597;28;20255;-54
2022/11/07 16:26:30;;;;;;;5.47;4.70;;;13.30;1.00;;;;;;6298434;28;20247;-54
2022/11/07 16:29:34;;;;;;;4.50;4.20;;;13.30;1.00;;;;;;6298638;28;20394;-54
2022/11/07 16:32:37;;;;;;;5.67;3.97;;;13.30;1.00;;;;;;6301081;28;20885;-53
2022/11/07 16:35:40;;;;;;;4.20;3.80;;;13.20;1.00;;;;;;6286197;28;20229;-53